Time;durP1;ratioP1;P1;durP2;ratioP2;P2;SDS_P1;SDS_P2;PMS_P1;PMS_P2;Temp;Humidity;BMP_temperature;BMP_pressure;BME280_temperature;BME280_humidity;BME280_pressure;Samples;Min_cycle;Max_cycle;Signal;HPM_P1;HPM_P2
2022/11/14 00:02:08;;;;;;;39.63;35.63;;;8.90;99.90;;;;;;5075781;28;20464;-77
2022/11/14 00:04:55;;;;;;;39.00;35.10;;;8.80;99.90;;;;;;5075725;28;20504;-77
2022/11/14 00:07:41;;;;;;;39.63;35.53;;;8.90;99.90;;;;;;5075026;28;20472;-77
2022/11/14 00:10:28;;;;;;;41.73;37.37;;;8.80;99.90;;;;;;5074881;28;20447;-76
2022/11/14 00:13:15;;;;;;;40.50;36.20;;;8.90;99.90;;;;;;5075423;28;20831;-77
2022/11/14 00:16:03;;;;;;;40.43;36.00;;;8.80;99.90;;;;;;5075860;28;20421;-77
2022/11/14 00:18:52;;;;;;;39.10;35.07;;;8.80;99.90;;;;;;5076362;28;20774;-76
2022/11/14 00:21:39;;;;;;;41.40;37.10;;;8.80;99.90;;;;;;5075014;28;20448;-76
2022/11/14 00:24:26;;;;;;;39.13;35.13;;;8.80;99.90;;;;;;5076635;28;20490;-76
2022/11/14 00:27:12;;;;;;;41.10;36.90;;;8.70;99.90;;;;;;5077121;28;20460;-76
2022/11/14 00:29:59;;;;;;;40.53;36.50;;;8.70;99.90;;;;;;5074544;28;20428;-76
2022/11/14 00:32:47;;;;;;;43.13;38.87;;;8.70;99.90;;;;;;5073914;28;20467;-77
2022/11/14 00:35:33;;;;;;;40.90;36.70;;;8.70;99.90;;;;;;5073561;28;20428;-77
2022/11/14 00:38:20;;;;;;;42.13;37.90;;;8.70;99.90;;;;;;5073775;28;20941;-77
2022/11/14 00:41:07;;;;;;;42.53;38.20;;;8.70;99.90;;;;;;5073784;28;20424;-77
2022/11/14 00:43:53;;;;;;;40.70;36.50;;;8.70;99.90;;;;;;5072952;28;20483;-77
2022/11/14 00:46:40;;;;;;;41.10;36.90;;;8.60;99.90;;;;;;5073446;28;21026;-77
2022/11/14 00:49:27;;;;;;;42.37;37.97;;;8.60;99.90;;;;;;5073412;28;20469;-77
2022/11/14 00:52:14;;;;;;;42.63;38.23;;;8.60;99.90;;;;;;5073876;28;20802;-77
2022/11/14 00:55:00;;;;;;;41.23;37.03;;;8.60;99.90;;;;;;5073360;28;20942;-77
2022/11/14 00:57:47;;;;;;;41.63;37.33;;;8.50;99.90;;;;;;5073789;28;20462;-77
2022/11/14 01:00:34;;;;;;;41.27;37.00;;;8.50;99.90;;;;;;5073585;28;20913;-77
2022/11/14 01:03:20;;;;;;;41.27;36.93;;;8.50;99.90;;;;;;5073240;28;20565;-76
2022/11/14 01:06:12;;;;;;;41.80;37.40;;;8.50;99.90;;;;;;5073820;28;20446;-77
2022/11/14 01:08:59;;;;;;;42.93;38.43;;;8.50;99.90;;;;;;5073220;28;20463;-77
2022/11/14 01:11:46;;;;;;;39.80;35.70;;;8.50;99.90;;;;;;5073099;28;20421;-77
2022/11/14 01:14:32;;;;;;;31.20;27.90;;;8.50;99.90;;;;;;5073272;28;20918;-77
2022/11/14 01:17:19;;;;;;;40.23;36.17;;;8.50;99.90;;;;;;5073428;28;20432;-77
2022/11/14 01:20:06;;;;;;;39.60;35.60;;;8.50;99.90;;;;;;5073571;28;20436;-77
2022/11/14 01:22:54;;;;;;;39.53;35.43;;;8.50;99.90;;;;;;5072974;28;20490;-77
2022/11/14 01:25:42;;;;;;;39.87;35.67;;;8.50;99.90;;;;;;5073332;28;20480;-77
2022/11/14 01:28:29;;;;;;;39.63;35.50;;;8.40;99.90;;;;;;5073426;28;20538;-77
2022/11/14 01:31:18;;;;;;;39.20;35.17;;;8.40;99.90;;;;;;5073566;28;20959;-77
2022/11/14 01:34:04;;;;;;;40.43;36.37;;;8.40;99.90;;;;;;5072884;28;20464;-77
2022/11/14 01:36:51;;;;;;;40.33;36.17;;;8.40;99.90;;;;;;5072738;28;20586;-77
2022/11/14 01:39:38;;;;;;;39.43;35.37;;;8.40;99.90;;;;;;5072981;28;20491;-77
2022/11/14 01:42:25;;;;;;;38.93;34.97;;;8.40;99.90;;;;;;5072808;28;20464;-76
2022/11/14 01:45:50;;;;;;;41.57;34.87;;;8.40;99.90;;;;;;5073088;28;20491;-77
2022/11/14 01:48:41;;;;;;;39.17;35.10;;;8.40;99.90;;;;;;5011344;28;20534;-77
2022/11/14 01:51:32;;;;;;;42.60;38.30;;;8.40;99.90;;;;;;5010955;28;21031;-77
2022/11/14 01:54:22;;;;;;;38.97;35.17;;;8.40;99.90;;;;;;5069156;28;20530;-77
2022/11/14 01:57:12;;;;;;;37.87;33.90;;;8.30;99.90;;;;;;5076337;28;20782;-77
2022/11/14 02:00:03;;;;;;;40.57;36.50;;;8.40;99.90;;;;;;5076322;28;20487;-77
2022/11/14 02:02:50;;;;;;;41.47;37.37;;;8.30;99.90;;;;;;5075947;28;20464;-77
2022/11/14 02:05:38;;;;;;;39.20;35.37;;;8.30;99.90;;;;;;5076198;28;20424;-77
2022/11/14 02:08:26;;;;;;;40.60;36.33;;;8.30;99.90;;;;;;5076032;28;20455;-77
2022/11/14 02:11:13;;;;;;;40.63;36.33;;;8.30;99.90;;;;;;5076058;28;20937;-76
2022/11/14 02:14:01;;;;;;;39.63;35.40;;;8.30;99.90;;;;;;5075708;28;20877;-77
2022/11/14 02:16:49;;;;;;;39.20;35.30;;;8.30;99.90;;;;;;5076318;28;20425;-77
2022/11/14 02:20:04;;;;;;;41.53;37.43;;;8.30;99.90;;;;;;5076398;28;20777;-77
2022/11/14 02:22:51;;;;;;;39.03;35.00;;;8.30;99.90;;;;;;5075431;28;20560;-77
2022/11/14 02:25:39;;;;;;;40.73;36.70;;;8.20;99.90;;;;;;5076278;28;20448;-77
2022/11/14 02:28:26;;;;;;;38.73;34.73;;;8.20;99.90;;;;;;5075953;28;20462;-77
2022/11/14 02:31:14;;;;;;;37.93;34.07;;;8.20;99.90;;;;;;5076049;28;20424;-77
2022/11/14 02:34:01;;;;;;;40.03;36.03;;;8.20;99.90;;;;;;5076303;28;20475;-77
2022/11/14 02:36:49;;;;;;;39.93;35.90;;;8.20;99.90;;;;;;5075489;28;20924;-77
2022/11/14 02:39:35;;;;;;;39.10;35.20;;;8.10;99.90;;;;;;5076118;28;20424;-77
2022/11/14 02:42:22;;;;;;;39.77;35.77;;;8.10;99.90;;;;;;5075770;28;20483;-77
2022/11/14 02:45:10;;;;;;;42.23;37.93;;;8.10;99.90;;;;;;5075610;28;20446;-77
2022/11/14 02:47:57;;;;;;;39.97;35.83;;;8.10;99.90;;;;;;5075356;28;20440;-77
2022/11/14 02:50:43;;;;;;;41.33;37.17;;;8.10;99.90;;;;;;5075598;28;20895;-77
2022/11/14 02:53:31;;;;;;;38.73;34.77;;;8.10;99.90;;;;;;5075484;28;20521;-77
2022/11/14 02:56:18;;;;;;;39.73;35.70;;;8.10;99.90;;;;;;5075532;28;20428;-77
2022/11/14 02:59:04;;;;;;;38.57;34.50;;;8.10;99.90;;;;;;5075537;28;20957;-77
2022/11/14 03:01:51;;;;;;;37.73;34.00;;;8.10;99.90;;;;;;5075404;28;20496;-77
2022/11/14 03:04:37;;;;;;;40.77;36.63;;;8.10;99.90;;;;;;5074867;28;20474;-77
2022/11/14 03:07:24;;;;;;;39.77;35.77;;;8.10;99.90;;;;;;5075025;28;20427;-77
2022/11/14 03:10:12;;;;;;;40.03;35.97;;;8.10;99.90;;;;;;5074970;28;20586;-77
2022/11/14 03:12:59;;;;;;;41.13;37.07;;;8.10;99.90;;;;;;5075075;28;20464;-77
2022/11/14 03:15:46;;;;;;;39.27;35.30;;;8.00;99.90;;;;;;5074612;28;20495;-77
2022/11/14 03:18:33;;;;;;;40.50;36.37;;;8.00;99.90;;;;;;5075031;28;20511;-77
2022/11/14 03:21:22;;;;;;;39.40;35.33;;;8.00;99.90;;;;;;5074663;28;20976;-77
2022/11/14 03:24:08;;;;;;;39.00;35.00;;;8.00;99.90;;;;;;5074970;28;20423;-77
2022/11/14 03:26:56;;;;;;;40.43;36.33;;;8.00;99.90;;;;;;5074566;28;20431;-77
2022/11/14 03:29:43;;;;;;;38.33;34.40;;;8.00;99.90;;;;;;5074598;28;20460;-77
2022/11/14 03:32:30;;;;;;;37.97;33.93;;;8.00;99.90;;;;;;5074170;28;20555;-77
2022/11/14 03:35:16;;;;;;;39.47;35.33;;;8.00;99.90;;;;;;5074405;28;20936;-77
2022/11/14 03:38:03;;;;;;;38.67;34.77;;;8.00;99.90;;;;;;5074351;28;20428;-76
2022/11/14 03:40:50;;;;;;;39.13;35.33;;;8.00;99.90;;;;;;5074653;28;20420;-77
2022/11/14 03:43:38;;;;;;;40.00;36.07;;;8.00;99.90;;;;;;5074448;28;20562;-77
2022/11/14 03:46:25;;;;;;;38.93;35.03;;;8.00;99.90;;;;;;5074530;28;20455;-77
2022/11/14 03:49:11;;;;;;;40.90;36.73;;;8.00;99.90;;;;;;5074134;28;20452;-76
2022/11/14 03:51:58;;;;;;;41.80;37.50;;;8.00;99.90;;;;;;5074562;28;20595;-77
2022/11/14 03:54:44;;;;;;;40.13;35.93;;;8.00;99.90;;;;;;5074089;28;20431;-77
2022/11/14 03:57:31;;;;;;;39.53;35.30;;;8.00;99.90;;;;;;5074035;28;20423;-77
2022/11/14 04:00:20;;;;;;;38.73;34.73;;;8.00;99.90;;;;;;5073757;28;20897;-77
2022/11/14 04:03:06;;;;;;;40.27;36.03;;;8.00;99.90;;;;;;5073871;28;20483;-77
2022/11/14 04:05:53;;;;;;;39.10;35.00;;;8.00;99.90;;;;;;5074221;28;20515;-77
2022/11/14 04:08:40;;;;;;;38.07;34.17;;;8.00;99.90;;;;;;5074450;28;20548;-77
2022/11/14 04:11:27;;;;;;;42.57;38.03;;;8.00;99.90;;;;;;5074290;28;20428;-77
2022/11/14 04:14:14;;;;;;;39.00;35.00;;;8.00;99.90;;;;;;5074008;28;20448;-76
2022/11/14 04:17:02;;;;;;;41.43;37.20;;;8.00;99.90;;;;;;5073507;28;20425;-77
2022/11/14 04:19:49;;;;;;;39.07;35.03;;;8.00;99.90;;;;;;5074046;28;20823;-76
2022/11/14 04:22:35;;;;;;;42.50;38.20;;;7.90;99.90;;;;;;5073352;28;20480;-77
2022/11/14 04:25:22;;;;;;;41.23;36.73;;;7.90;99.90;;;;;;5073564;28;20427;-77
2022/11/14 04:28:09;;;;;;;40.90;36.53;;;7.90;99.90;;;;;;5073871;28;20433;-77
2022/11/14 04:30:55;;;;;;;43.30;38.80;;;7.90;99.90;;;;;;5073303;28;20457;-77
2022/11/14 04:33:43;;;;;;;39.50;35.60;;;7.90;99.90;;;;;;5073519;28;20892;-77
2022/11/14 04:36:29;;;;;;;39.63;35.60;;;7.90;99.90;;;;;;5073605;28;20452;-77
2022/11/14 04:39:16;;;;;;;42.00;37.60;;;7.90;99.90;;;;;;5073336;28;20421;-76
2022/11/14 04:42:02;;;;;;;40.57;36.27;;;7.80;99.90;;;;;;5073554;28;20472;-77
2022/11/14 04:44:49;;;;;;;42.50;38.00;;;7.80;99.90;;;;;;5073200;28;20523;-77
2022/11/14 04:47:35;;;;;;;42.77;38.10;;;7.80;99.90;;;;;;5073256;28;20425;-77
2022/11/14 04:50:23;;;;;;;40.67;36.30;;;7.90;99.90;;;;;;5073387;28;20460;-76
2022/11/14 04:53:10;;;;;;;43.57;39.17;;;7.80;99.90;;;;;;5073332;28;20530;-77
2022/11/14 04:55:56;;;;;;;45.03;40.27;;;7.80;99.90;;;;;;5073388;28;20432;-77
2022/11/14 04:58:42;;;;;;;44.77;39.53;;;7.80;99.90;;;;;;5073420;28;20932;-77
2022/11/14 05:01:29;;;;;;;42.93;38.23;;;7.80;99.90;;;;;;5073321;28;20423;-77
2022/11/14 05:04:16;;;;;;;44.17;39.50;;;7.80;99.90;;;;;;5073393;28;20510;-77
2022/11/14 05:07:04;;;;;;;43.20;38.77;;;7.80;99.90;;;;;;5073725;28;20422;-76
2022/11/14 05:09:50;;;;;;;43.63;38.83;;;7.80;99.90;;;;;;5073114;28;20586;-77
2022/11/14 05:12:37;;;;;;;40.30;35.97;;;7.80;99.90;;;;;;5073206;28;20513;-77
2022/11/14 05:15:24;;;;;;;40.00;35.80;;;7.80;99.90;;;;;;5072956;28;20900;-77
2022/11/14 05:18:10;;;;;;;42.60;38.00;;;7.80;99.90;;;;;;5073493;28;20427;-77
2022/11/14 05:20:58;;;;;;;42.57;38.17;;;7.70;99.90;;;;;;5072946;28;20551;-77
2022/11/14 05:23:46;;;;;;;42.77;38.20;;;7.80;99.90;;;;;;5073992;28;20595;-77
2022/11/14 05:26:33;;;;;;;44.40;39.67;;;7.80;99.90;;;;;;5073087;28;20520;-77
2022/11/14 05:29:20;;;;;;;44.27;38.57;;;7.80;99.90;;;;;;5075813;28;20430;-77
2022/11/14 05:32:06;;;;;;;45.17;40.27;;;7.80;99.90;;;;;;5077043;28;20467;-77
2022/11/14 05:34:59;;;;;;;42.80;38.07;;;7.70;99.90;;;;;;5076776;28;20432;-77
2022/11/14 05:37:45;;;;;;;47.13;39.43;;;7.70;99.90;;;;;;5076459;28;20430;-76
2022/11/14 05:40:33;;;;;;;42.33;37.73;;;7.70;99.90;;;;;;5076974;28;20429;-77
2022/11/14 05:43:20;;;;;;;41.23;36.77;;;7.70;99.90;;;;;;5076888;28;20570;-76
2022/11/14 05:46:09;;;;;;;42.83;38.33;;;7.70;99.90;;;;;;5076587;28;20426;-77
2022/11/14 05:48:55;;;;;;;43.23;38.63;;;7.70;99.90;;;;;;5076800;28;20417;-77
2022/11/14 05:51:42;;;;;;;43.20;37.87;;;7.70;99.90;;;;;;5076412;28;20829;-76
2022/11/14 05:54:28;;;;;;;43.80;39.07;;;7.60;99.90;;;;;;5076180;28;20427;-76
2022/11/14 05:57:16;;;;;;;42.00;37.60;;;7.70;99.90;;;;;;5076617;28;20443;-76
2022/11/14 06:00:03;;;;;;;42.80;38.30;;;7.60;99.90;;;;;;5076303;28;20449;-77
2022/11/14 06:02:52;;;;;;;42.43;37.80;;;7.60;99.90;;;;;;5075982;28;20456;-77
2022/11/14 06:05:39;;;;;;;42.47;37.93;;;7.60;99.90;;;;;;5076516;28;20564;-77
2022/11/14 06:08:27;;;;;;;43.00;38.43;;;7.60;99.90;;;;;;5076498;28;20472;-77
2022/11/14 06:11:16;;;;;;;42.83;38.30;;;7.60;99.90;;;;;;5075890;28;20918;-77
2022/11/14 06:14:04;;;;;;;44.53;39.40;;;7.60;99.90;;;;;;5076299;28;20465;-76
2022/11/14 06:16:56;;;;;;;44.30;37.97;;;7.60;99.90;;;;;;5075852;28;20438;-76
2022/11/14 06:19:43;;;;;;;43.60;38.10;;;7.60;99.90;;;;;;5076509;28;20965;-76
2022/11/14 06:22:29;;;;;;;41.37;36.30;;;7.60;99.90;;;;;;5075871;28;20482;-76
2022/11/14 06:25:16;;;;;;;41.40;36.97;;;7.60;99.90;;;;;;5076114;28;20435;-76
2022/11/14 06:28:03;;;;;;;44.50;39.10;;;7.60;99.90;;;;;;5076135;28;20476;-76
2022/11/14 06:30:50;;;;;;;44.50;38.70;;;7.60;99.90;;;;;;5075984;28;20459;-76
2022/11/14 06:33:37;;;;;;;45.23;37.93;;;7.60;99.90;;;;;;5075924;28;20470;-77
2022/11/14 06:36:24;;;;;;;43.83;38.60;;;7.60;99.90;;;;;;5075747;28;20419;-76
2022/11/14 06:39:11;;;;;;;42.97;38.20;;;7.50;99.90;;;;;;5075704;28;20471;-76
2022/11/14 06:41:57;;;;;;;47.13;41.30;;;7.50;99.90;;;;;;5075133;28;20915;-76
2022/11/14 06:44:44;;;;;;;46.43;40.20;;;7.50;99.90;;;;;;5075537;28;20429;-76
2022/11/14 06:47:31;;;;;;;45.97;40.30;;;7.50;99.90;;;;;;5075976;28;20776;-76
2022/11/14 06:50:18;;;;;;;46.87;40.30;;;7.50;99.90;;;;;;5075583;28;20543;-76
2022/11/14 06:53:05;;;;;;;46.23;40.30;;;7.50;99.90;;;;;;5075428;28;20470;-76
2022/11/14 06:55:56;;;;;;;44.87;39.23;;;7.50;99.90;;;;;;5075139;28;20498;-77
2022/11/14 06:58:44;;;;;;;44.73;40.00;;;7.60;99.90;;;;;;5075662;28;20427;-77
2022/11/14 07:01:31;;;;;;;46.77;40.23;;;7.60;99.90;;;;;;5074924;28;20448;-76
2022/11/14 07:04:19;;;;;;;48.33;41.03;;;7.50;99.90;;;;;;5075195;28;20464;-77
2022/11/14 07:07:05;;;;;;;44.20;38.63;;;7.50;99.90;;;;;;5075028;28;20424;-76
2022/11/14 07:09:53;;;;;;;45.50;40.03;;;7.50;99.90;;;;;;5075267;28;20434;-76
2022/11/14 07:12:39;;;;;;;45.93;40.97;;;7.50;99.90;;;;;;5075362;28;20818;-76
2022/11/14 07:15:26;;;;;;;46.47;40.93;;;7.50;99.90;;;;;;5074923;28;20432;-76
2022/11/14 07:18:13;;;;;;;46.70;41.60;;;7.50;99.90;;;;;;5074882;28;20431;-76
2022/11/14 07:21:03;;;;;;;48.33;42.67;;;7.50;99.90;;;;;;5074549;28;20465;-77
2022/11/14 07:23:50;;;;;;;45.57;40.20;;;7.50;99.90;;;;;;5074631;28;20965;-77
2022/11/14 07:26:37;;;;;;;47.73;42.67;;;7.50;99.90;;;;;;5074492;28;20422;-76
2022/11/14 07:29:24;;;;;;;51.70;42.97;;;7.50;99.90;;;;;;5074705;28;20447;-76
2022/11/14 07:32:10;;;;;;;49.87;44.47;;;7.50;99.90;;;;;;5074484;28;21078;-76
2022/11/14 07:34:57;;;;;;;51.93;42.13;;;7.50;99.90;;;;;;5074499;28;20498;-76
2022/11/14 07:37:50;;;;;;;51.00;42.20;;;7.50;99.90;;;;;;5074208;28;20512;-76
2022/11/14 07:40:37;;;;;;;45.63;39.83;;;7.50;99.90;;;;;;5074657;28;20780;-76
2022/11/14 07:43:23;;;;;;;37.57;32.90;;;7.50;99.90;;;;;;5074223;28;20467;-77
2022/11/14 07:46:12;;;;;;;48.23;41.40;;;7.60;99.90;;;;;;5074772;28;20450;-76
2022/11/14 07:48:58;;;;;;;49.87;39.93;;;7.60;99.90;;;;;;5075836;28;20435;-76
2022/11/14 07:51:45;;;;;;;46.33;40.77;;;7.60;99.90;;;;;;5073578;28;20457;-76
2022/11/14 07:54:33;;;;;;;47.80;41.00;;;7.60;99.90;;;;;;5074250;28;20474;-76
2022/11/14 07:57:19;;;;;;;49.00;41.00;;;7.50;99.90;;;;;;5074419;28;20432;-76
2022/11/14 08:00:07;;;;;;;48.50;40.43;;;7.50;99.90;;;;;;5074096;28;20493;-76
2022/11/14 08:02:54;;;;;;;41.53;33.40;;;7.50;99.90;;;;;;5074111;28;21062;-76
2022/11/14 08:05:40;;;;;;;49.00;40.20;;;7.50;99.90;;;;;;5073642;28;20425;-76
2022/11/14 08:08:26;;;;;;;46.57;39.83;;;7.50;99.90;;;;;;5073866;28;20440;-76
2022/11/14 08:11:46;;;;;;;48.10;40.23;;;7.50;99.90;;;;;;5073578;28;20457;-76
2022/11/14 08:14:22;;;;;;;47.13;38.83;;;7.50;99.90;;;;;;5074127;28;20539;-77
2022/11/14 08:17:08;;;;;;;49.13;39.17;;;7.50;99.90;;;;;;5074078;28;20772;-76
2022/11/14 08:19:55;;;;;;;51.23;40.37;;;7.50;99.90;;;;;;5074174;28;20518;-77
2022/11/14 08:22:41;;;;;;;50.43;39.17;;;7.50;99.90;;;;;;5078127;28;20520;-77
2022/11/14 08:25:28;;;;;;;49.60;39.40;;;7.50;99.90;;;;;;5076388;28;20506;-77
2022/11/14 08:28:16;;;;;;;50.07;41.17;;;7.50;99.90;;;;;;5075227;28;20429;-77
2022/11/14 08:31:03;;;;;;;48.87;40.27;;;7.50;99.90;;;;;;5075498;28;20460;-77
2022/11/14 08:33:51;;;;;;;54.63;45.17;;;7.50;99.90;;;;;;5075022;28;20472;-77
2022/11/14 08:36:38;;;;;;;50.10;41.63;;;7.50;99.90;;;;;;5075014;28;20425;-76
2022/11/14 08:39:25;;;;;;;71.50;44.77;;;7.50;99.90;;;;;;5074478;28;20497;-76
2022/11/14 08:42:11;;;;;;;51.40;42.00;;;7.50;99.90;;;;;;5074112;28;20469;-76
2022/11/14 08:44:59;;;;;;;49.70;41.50;;;7.60;99.90;;;;;;5074306;28;20450;-76
2022/11/14 08:47:52;;;;;;;51.10;41.90;;;7.60;99.90;;;;;;5074261;28;20423;-76
2022/11/14 08:50:38;;;;;;;50.80;43.57;;;7.60;99.90;;;;;;5073664;28;20433;-76
2022/11/14 08:53:25;;;;;;;49.63;41.50;;;7.60;99.90;;;;;;5073307;28;20617;-76
2022/11/14 08:56:12;;;;;;;51.27;42.80;;;7.60;99.90;;;;;;5073950;28;20602;-76
2022/11/14 08:58:58;;;;;;;53.27;43.33;;;7.60;99.90;;;;;;5073216;28;20424;-76
2022/11/14 09:01:47;;;;;;;57.03;45.00;;;7.60;99.90;;;;;;5073253;28;20442;-76
2022/11/14 09:04:33;;;;;;;48.13;40.67;;;7.60;99.90;;;;;;5076698;28;20781;-76
2022/11/14 09:07:20;;;;;;;51.57;42.63;;;7.60;99.90;;;;;;5077718;28;21001;-76
2022/11/14 09:10:08;;;;;;;52.17;43.20;;;7.70;99.90;;;;;;5077440;28;20502;-76
2022/11/14 09:12:56;;;;;;;50.60;42.17;;;7.70;99.90;;;;;;5077176;28;20483;-76
2022/11/14 09:15:43;;;;;;;51.07;42.83;;;7.70;99.90;;;;;;5077272;28;20424;-76
2022/11/14 09:18:31;;;;;;;51.17;41.83;;;7.70;99.90;;;;;;5076938;28;20435;-76
2022/11/14 09:21:19;;;;;;;51.50;43.20;;;7.80;99.90;;;;;;5076814;28;20462;-76
2022/11/14 09:24:06;;;;;;;47.53;40.67;;;7.70;99.90;;;;;;5077068;28;20471;-76
2022/11/14 09:26:52;;;;;;;50.67;41.93;;;7.70;99.90;;;;;;5077450;28;20775;-75
2022/11/14 09:29:42;;;;;;;50.17;43.87;;;7.70;99.90;;;;;;5077130;28;20419;-76
2022/11/14 09:32:29;;;;;;;47.43;41.30;;;7.80;99.90;;;;;;5076660;28;20999;-75
2022/11/14 09:35:17;;;;;;;49.60;41.97;;;7.80;99.90;;;;;;5077280;28;20441;-76
2022/11/14 09:38:06;;;;;;;52.70;44.63;;;7.80;99.90;;;;;;5076418;28;20462;-76
2022/11/14 09:41:04;;;;;;;48.80;42.33;;;7.80;99.90;;;;;;5076991;28;20969;-76
2022/11/14 09:44:12;;;;;;;45.90;38.77;;;7.80;99.90;;;;;;5076360;28;20825;-76
2022/11/14 09:47:09;;;;;;;50.80;41.80;;;7.80;99.90;;;;;;5076935;28;20436;-76
2022/11/14 09:50:02;;;;;;;47.23;41.37;;;7.80;99.90;;;;;;5076867;28;20504;-76
2022/11/14 09:52:56;;;;;;;46.53;39.37;;;7.90;99.90;;;;;;5076514;28;20491;-76
2022/11/14 09:55:42;;;;;;;42.47;38.07;;;7.90;99.90;;;;;;5076431;28;20478;-76
2022/11/14 09:58:29;;;;;;;46.17;39.00;;;7.90;99.90;;;;;;5076162;28;20516;-76
2022/11/14 10:01:23;;;;;;;43.10;38.30;;;7.90;99.90;;;;;;5076854;28;20770;-76
2022/11/14 10:04:22;;;;;;;42.70;37.93;;;7.90;99.90;;;;;;5076520;28;20901;-75
2022/11/14 10:07:22;;;;;;;43.30;38.30;;;7.90;99.90;;;;;;5076283;28;20473;-76
2022/11/14 10:10:23;;;;;;;41.57;37.10;;;7.90;99.90;;;;;;5076358;28;20938;-76
2022/11/14 10:13:17;;;;;;;45.07;40.13;;;8.00;99.90;;;;;;5076021;28;20482;-77
2022/11/14 10:16:10;;;;;;;47.83;38.93;;;7.90;99.90;;;;;;5074721;28;20427;-76
2022/11/14 10:19:10;;;;;;;41.00;36.50;;;7.90;99.90;;;;;;5076013;28;20425;-76
2022/11/14 10:22:15;;;;;;;43.33;37.23;;;8.00;99.90;;;;;;5075919;28;20811;-76
2022/11/14 10:25:17;;;;;;;41.77;37.40;;;8.00;99.90;;;;;;5076020;28;20413;-76
2022/11/14 10:28:19;;;;;;;46.17;38.43;;;8.00;99.90;;;;;;5076019;28;20474;-76
2022/11/14 10:31:16;;;;;;;42.80;38.27;;;8.00;99.90;;;;;;5076018;28;20424;-76
2022/11/14 10:34:08;;;;;;;44.73;38.30;;;8.10;99.90;;;;;;5076100;28;20460;-76
2022/11/14 10:37:03;;;;;;;42.40;37.90;;;8.10;99.90;;;;;;5076230;28;20503;-76
2022/11/14 10:39:52;;;;;;;43.97;39.27;;;8.10;99.90;;;;;;5076465;28;20424;-76
2022/11/14 10:42:44;;;;;;;44.63;39.50;;;8.10;99.90;;;;;;5076660;28;20448;-75
2022/11/14 10:45:35;;;;;;;42.10;37.50;;;8.10;99.90;;;;;;5076540;28;20433;-76
2022/11/14 10:48:30;;;;;;;42.60;38.03;;;8.10;99.90;;;;;;5076062;28;20844;-76
2022/11/14 10:51:24;;;;;;;41.30;36.77;;;8.20;99.90;;;;;;5076146;28;21019;-76
2022/11/14 10:54:17;;;;;;;32.80;29.00;;;8.20;99.90;;;;;;5076167;28;20435;-75
2022/11/14 10:57:13;;;;;;;43.73;37.83;;;8.30;99.90;;;;;;5076825;28;20780;-76
2022/11/14 11:00:01;;;;;;;39.47;35.27;;;8.30;99.90;;;;;;5076306;28;20414;-76
2022/11/14 11:02:50;;;;;;;41.57;37.20;;;8.30;99.90;;;;;;5076686;28;20989;-76
2022/11/14 11:05:47;;;;;;;41.67;37.17;;;8.30;99.90;;;;;;5075168;28;20843;-76
2022/11/14 11:11:56;;;;;;;38.80;34.70;;;8.40;99.90;;;;;;5075122;28;20417;-77
2022/11/14 11:14:44;;;;;;;40.00;35.63;;;8.40;99.90;;;;;;5075187;28;20412;-76
2022/11/14 11:17:32;;;;;;;40.90;36.57;;;8.40;99.90;;;;;;5074891;28;20551;-77
2022/11/14 11:20:32;;;;;;;40.47;36.17;;;8.40;99.90;;;;;;5075090;28;20423;-76
2022/11/14 11:23:22;;;;;;;40.80;36.40;;;8.40;99.90;;;;;;5074812;28;21006;-76
2022/11/14 11:26:23;;;;;;;41.13;36.87;;;8.40;99.90;;;;;;5074832;28;20466;-76
2022/11/14 11:29:16;;;;;;;38.27;34.37;;;8.50;99.90;;;;;;5074642;28;20424;-76
2022/11/14 11:32:05;;;;;;;40.23;36.00;;;8.50;99.90;;;;;;5074374;28;20486;-76
2022/11/14 11:34:55;;;;;;;42.77;38.30;;;8.50;99.90;;;;;;5074813;28;20416;-76
2022/11/14 11:37:47;;;;;;;40.23;36.00;;;8.50;99.90;;;;;;5074546;28;20421;-76
2022/11/14 11:40:33;;;;;;;41.07;36.97;;;8.50;99.90;;;;;;5074397;28;20428;-76
2022/11/14 11:43:29;;;;;;;41.77;37.27;;;8.60;99.90;;;;;;5074646;28;20456;-76
2022/11/14 11:46:32;;;;;;;41.33;36.90;;;8.60;99.90;;;;;;5074237;28;20427;-76
2022/11/14 11:49:28;;;;;;;42.03;37.40;;;8.60;99.90;;;;;;5074308;28;20475;-76
2022/11/14 11:52:23;;;;;;;41.93;37.07;;;8.70;99.90;;;;;;5074285;28;20467;-75
2022/11/14 11:55:17;;;;;;;44.17;39.37;;;8.70;99.90;;;;;;5074285;28;20417;-76
2022/11/14 11:58:10;;;;;;;43.67;38.97;;;8.70;99.90;;;;;;5073983;28;20428;-76
2022/11/14 12:00:57;;;;;;;41.83;37.50;;;8.70;99.90;;;;;;5074062;28;20460;-76
2022/11/14 12:03:47;;;;;;;41.43;37.03;;;8.80;99.90;;;;;;5074138;28;20460;-76
2022/11/14 12:06:44;;;;;;;40.27;35.93;;;8.70;99.90;;;;;;5074078;28;20424;-76
2022/11/14 12:09:38;;;;;;;39.80;35.57;;;8.70;99.90;;;;;;5074231;28;20483;-76
2022/11/14 12:13:28;;;;;;;41.23;36.97;;;8.70;99.90;;;;;;5077074;28;20471;-76
2022/11/14 12:16:40;;;;;;;41.70;37.33;;;8.70;99.90;;;;;;5075455;28;20448;-76
2022/11/14 12:19:52;;;;;;;42.43;37.83;;;8.70;99.90;;;;;;5074400;28;20425;-76
2022/11/14 12:23:10;;;;;;;40.50;36.40;;;8.70;99.90;;;;;;5073917;28;20514;-77
2022/11/14 12:26:38;;;;;;;39.97;35.67;;;8.70;99.90;;;;;;5074506;28;20417;-76
2022/11/14 12:29:46;;;;;;;41.97;37.37;;;8.60;99.90;;;;;;5045424;28;20459;-76
2022/11/14 12:32:36;;;;;;;40.27;35.97;;;8.60;99.90;;;;;;5073493;28;20996;-76
2022/11/14 12:35:28;;;;;;;40.60;36.53;;;8.60;99.90;;;;;;5073750;28;20432;-75
2022/11/14 12:38:18;;;;;;;39.67;35.37;;;8.60;99.90;;;;;;5072771;28;20432;-76
2022/11/14 12:41:06;;;;;;;39.50;34.97;;;8.60;99.90;;;;;;5073848;28;20819;-76
2022/11/14 12:43:52;;;;;;;39.00;35.20;;;8.60;99.90;;;;;;5073268;28;20534;-76
2022/11/14 12:47:16;;;;;;;43.50;37.67;;;8.60;99.90;;;;;;5073540;28;20445;-76
2022/11/14 12:50:22;;;;;;;39.70;35.60;;;8.60;99.90;;;;;;5073876;28;20416;-77
2022/11/14 12:53:40;;;;;;;40.00;35.80;;;8.60;99.90;;;;;;5073518;28;20833;-76
2022/11/14 12:57:08;;;;;;;43.33;38.33;;;8.70;99.90;;;;;;5073619;28;20767;-77
2022/11/14 13:00:04;;;;;;;42.83;36.80;;;8.70;99.90;;;;;;5073517;28;20421;-76
2022/11/14 13:03:14;;;;;;;38.77;34.90;;;8.70;99.90;;;;;;5073301;28;20451;-76
2022/11/14 13:06:05;;;;;;;40.20;35.90;;;8.70;99.90;;;;;;5073438;28;20448;-76
2022/11/14 13:09:27;;;;;;;43.37;38.60;;;8.70;99.90;;;;;;5073450;28;20421;-76
2022/11/14 13:22:34;;;;;;;40.80;35.93;;;8.80;99.90;;;;;;5072970;28;20525;-76
2022/11/14 13:25:23;;;;;;;44.23;37.97;;;8.80;99.90;;;;;;5073145;28;20436;-76
2022/11/14 13:28:46;;;;;;;40.57;36.17;;;8.80;99.90;;;;;;5073295;28;20435;-76
2022/11/14 13:31:48;;;;;;;38.73;34.57;;;8.90;99.90;;;;;;5073406;28;20425;-76
2022/11/14 13:34:51;;;;;;;40.77;36.47;;;8.90;99.90;;;;;;5073108;28;20472;-76
2022/11/14 13:37:56;;;;;;;40.00;35.97;;;8.90;99.90;;;;;;5073330;28;20502;-76
2022/11/14 13:40:53;;;;;;;41.00;36.60;;;8.90;99.90;;;;;;5073289;28;20502;-76
2022/11/14 13:43:55;;;;;;;42.43;38.03;;;8.90;99.90;;;;;;5073233;28;20456;-76
2022/11/14 13:46:57;;;;;;;42.23;37.80;;;8.90;99.90;;;;;;5072897;28;20443;-76
2022/11/14 13:50:05;;;;;;;39.50;35.33;;;8.90;99.90;;;;;;5074476;28;20828;-77
2022/11/14 13:52:52;;;;;;;40.43;36.00;;;8.90;99.90;;;;;;5076603;28;20491;-76
2022/11/14 13:56:00;;;;;;;39.73;35.60;;;9.00;99.90;;;;;;5076569;28;20528;-76
2022/11/14 13:59:34;;;;;;;41.77;37.23;;;8.90;99.90;;;;;;5077340;28;20430;-76
2022/11/14 14:02:59;;;;;;;40.30;36.00;;;8.90;99.90;;;;;;5038493;28;20522;-76
2022/11/14 14:06:10;;;;;;;38.87;34.97;;;8.90;99.90;;;;;;5067650;28;20448;-76
2022/11/14 14:09:21;;;;;;;41.33;37.03;;;8.90;99.90;;;;;;5076294;28;20421;-76
2022/11/14 14:12:26;;;;;;;40.43;36.20;;;8.90;99.90;;;;;;5075941;28;20480;-76
2022/11/14 14:15:21;;;;;;;41.80;37.40;;;9.00;99.90;;;;;;5075832;28;20836;-76
2022/11/14 14:18:18;;;;;;;41.97;37.57;;;8.90;99.90;;;;;;5076739;28;20416;-76
2022/11/14 14:21:15;;;;;;;40.40;36.30;;;8.90;99.90;;;;;;5076232;28;20467;-76
2022/11/14 14:24:10;;;;;;;39.93;35.83;;;8.90;99.90;;;;;;5075937;28;20583;-76
2022/11/14 14:27:05;;;;;;;38.60;34.43;;;8.90;99.90;;;;;;5075901;28;20468;-76
2022/11/14 14:30:01;;;;;;;40.47;36.17;;;8.90;99.90;;;;;;5075621;28;20433;-76
2022/11/14 14:33:09;;;;;;;39.60;35.27;;;8.90;99.90;;;;;;5076088;28;20463;-76
2022/11/14 14:35:56;;;;;;;41.27;36.97;;;8.90;99.90;;;;;;5075736;28;20811;-76
2022/11/14 14:38:44;;;;;;;39.40;35.40;;;8.90;99.90;;;;;;5075985;28;20420;-76
2022/11/14 14:41:32;;;;;;;40.30;36.13;;;8.80;99.90;;;;;;5075975;28;20791;-76
2022/11/14 14:44:24;;;;;;;37.63;33.67;;;8.80;99.90;;;;;;5075883;28;20416;-75
2022/11/14 14:47:16;;;;;;;179.97;58.83;;;8.80;99.90;;;;;;5075727;28;20610;-76
2022/11/14 14:50:06;;;;;;;43.13;37.50;;;8.80;99.90;;;;;;5075830;28;20416;-76
2022/11/14 14:52:57;;;;;;;47.40;37.17;;;8.70;99.90;;;;;;5075333;28;20598;-76